Time;durP1;ratioP1;P1;durP2;ratioP2;P2;SDS_P1;SDS_P2;PMS_P1;PMS_P2;Temp;Humidity;BMP_temperature;BMP_pressure;BME280_temperature;BME280_humidity;BME280_pressure;Samples;Min_cycle;Max_cycle;Signal;HPM_P1;HPM_P2
2023/08/10 00:01:20;;;;;;;3.40;1.35;;;;;;;;;;5063662;28;20053;-66
2023/08/10 00:03:46;;;;;;;13.30;1.70;;;;;;;;;;5063371;28;20049;-66
2023/08/10 00:06:14;;;;;;;3.53;1.33;;;;;;;;;;5062564;28;20068;-65
2023/08/10 00:08:40;;;;;;;6.32;1.50;;;;;;;;;;5063040;28;20084;-61
2023/08/10 00:11:06;;;;;;;5.95;1.60;;;;;;;;;;5046844;28;20115;-67
2023/08/10 00:13:33;;;;;;;6.07;1.92;;;;;;;;;;5042752;28;20107;-63
2023/08/10 00:15:59;;;;;;;6.28;1.92;;;;;;;;;;5043696;28;20430;-62
2023/08/10 00:18:26;;;;;;;3.97;1.30;;;;;;;;;;5042673;28;20128;-67
2023/08/10 00:20:52;;;;;;;3.60;1.17;;;;;;;;;;5043105;28;20124;-66
2023/08/10 00:23:19;;;;;;;1.70;1.20;;;;;;;;;;5050936;28;20152;-62
2023/08/10 00:25:45;;;;;;;7.28;2.75;;;;;;;;;;5061810;28;20064;-67
2023/08/10 00:28:12;;;;;;;3.25;1.55;;;;;;;;;;5056525;28;20432;-66
2023/08/10 00:30:38;;;;;;;5.70;1.58;;;;;;;;;;5042761;28;20104;-64
2023/08/10 00:33:04;;;;;;;2.10;1.30;;;;;;;;;;5043215;28;20107;-67
2023/08/10 00:35:31;;;;;;;3.58;1.60;;;;;;;;;;5043142;28;20064;-67
2023/08/10 00:37:58;;;;;;;3.38;1.60;;;;;;;;;;5041032;28;20136;-67
2023/08/10 00:40:24;;;;;;;3.00;1.02;;;;;;;;;;5054561;28;20053;-62
2023/08/10 00:42:51;;;;;;;2.45;1.35;;;;;;;;;;5062360;28;20100;-67
2023/08/10 00:45:17;;;;;;;2.72;1.30;;;;;;;;;;5062922;28;20491;-63
2023/08/10 00:47:44;;;;;;;5.72;1.67;;;;;;;;;;5051227;28;20053;-63
2023/08/10 00:50:10;;;;;;;5.63;1.90;;;;;;;;;;5048177;28;20049;-67
2023/08/10 00:52:37;;;;;;;3.85;1.70;;;;;;;;;;5062393;28;20053;-67
2023/08/10 00:55:04;;;;;;;5.22;1.45;;;;;;;;;;5062353;28;20056;-66
2023/08/10 00:57:30;;;;;;;3.97;1.80;;;;;;;;;;5050015;28;20574;-63
2023/08/10 00:59:57;;;;;;;5.38;1.77;;;;;;;;;;5045959;28;20542;-67
2023/08/10 01:02:24;;;;;;;7.72;1.85;;;;;;;;;;5065934;28;20053;-67
2023/08/10 01:04:50;;;;;;;2.90;1.45;;;;;;;;;;5050745;28;20053;-66
2023/08/10 01:07:26;;;;;;;3.05;1.52;;;;;;;;;;5045386;28;20061;-65
2023/08/10 01:09:53;;;;;;;;;;;;;;;;;;5045242;28;20057;-67
2023/08/10 01:12:29;;;;;;;4.43;1.45;;;;;;;;;;5045118;28;45159;-66
2023/08/10 01:15:02;;;;;;;4.47;1.80;;;;;;;;;;5045037;28;20064;-67
2023/08/10 01:17:30;;;;;;;3.10;1.48;;;;;;;;;;5060853;28;20136;-63
2023/08/10 01:19:59;;;;;;;4.40;1.73;;;;;;;;;;5064552;28;20523;-64
2023/08/10 01:22:35;;;;;;;2.70;1.65;;;;;;;;;;5065141;28;20053;-61
2023/08/10 01:25:06;;;;;;;8.15;2.05;;;;;;;;;;5066433;28;20657;-65
2023/08/10 01:27:34;;;;;;;2.67;1.80;;;;;;;;;;5063323;28;20172;-63
2023/08/10 01:30:01;;;;;;;3.08;1.60;;;;;;;;;;5046165;28;20152;-66
2023/08/10 01:32:32;;;;;;;2.67;1.60;;;;;;;;;;5046610;28;20152;-66
2023/08/10 01:35:05;;;;;;;5.05;2.38;;;;;;;;;;5045518;28;20112;-66
2023/08/10 01:37:33;;;;;;;5.40;1.77;;;;;;;;;;5060193;28;20049;-64
2023/08/10 01:40:00;;;;;;;2.63;1.52;;;;;;;;;;5046132;28;20116;-67
2023/08/10 01:42:26;;;;;;;2.63;1.48;;;;;;;;;;5045388;28;20107;-66
2023/08/10 01:44:53;;;;;;;2.55;1.48;;;;;;;;;;5057766;28;20164;-64
2023/08/10 01:47:26;;;;;;;3.88;1.45;;;;;;;;;;5056866;28;20064;-67
2023/08/10 01:49:55;;;;;;;3.45;1.48;;;;;;;;;;5064878;28;20609;-67
2023/08/10 01:52:28;;;;;;;5.60;1.80;;;;;;;;;;5065674;28;20052;-66
2023/08/10 01:54:55;;;;;;;3.17;1.35;;;;;;;;;;5064089;28;20052;-64
2023/08/10 01:57:21;;;;;;;1.77;1.23;;;;;;;;;;5065428;28;20134;-68
2023/08/10 01:59:47;;;;;;;3.65;1.40;;;;;;;;;;5046619;28;20057;-64
2023/08/10 02:02:14;;;;;;;2.65;1.15;;;;;;;;;;5045460;28;20120;-63
2023/08/10 02:04:40;;;;;;;4.47;1.35;;;;;;;;;;5057139;28;20136;-67
2023/08/10 02:07:07;;;;;;;2.97;1.55;;;;;;;;;;5065209;28;20168;-67
2023/08/10 02:09:33;;;;;;;2.42;1.40;;;;;;;;;;5048901;28;20064;-64
2023/08/10 02:12:00;;;;;;;3.05;1.48;;;;;;;;;;5045006;28;20188;-66
2023/08/10 02:14:26;;;;;;;2.72;1.23;;;;;;;;;;5063306;28;20687;-67
2023/08/10 02:16:52;;;;;;;3.40;1.40;;;;;;;;;;5064929;28;20483;-66
2023/08/10 02:19:19;;;;;;;4.65;1.38;;;;;;;;;;5063201;28;20056;-68
2023/08/10 02:21:45;;;;;;;5.35;1.52;;;;;;;;;;5065510;28;20152;-68
2023/08/10 02:24:12;;;;;;;3.35;1.58;;;;;;;;;;5065398;28;20060;-68
2023/08/10 02:26:39;;;;;;;4.95;1.40;;;;;;;;;;5064000;28;20666;-63
2023/08/10 02:29:05;;;;;;;3.05;1.58;;;;;;;;;;5054584;28;20057;-67
2023/08/10 02:31:31;;;;;;;2.42;1.30;;;;;;;;;;5064047;28;20519;-67
2023/08/10 02:33:58;;;;;;;4.35;1.58;;;;;;;;;;5065032;28;20053;-65
2023/08/10 02:36:24;;;;;;;2.85;1.40;;;;;;;;;;5064654;28;20103;-67
2023/08/10 02:38:51;;;;;;;3.58;1.77;;;;;;;;;;5064262;28;20052;-66
2023/08/10 02:41:17;;;;;;;3.90;1.75;;;;;;;;;;5062739;28;20325;-64
2023/08/10 02:43:44;;;;;;;2.60;1.35;;;;;;;;;;5065038;28;20524;-66
2023/08/10 02:46:10;;;;;;;2.33;1.13;;;;;;;;;;5064540;28;20162;-68
2023/08/10 02:48:36;;;;;;;1.13;1.02;;;;;;;;;;5062856;28;20048;-65
2023/08/10 02:51:03;;;;;;;3.58;1.60;;;;;;;;;;5059216;28;20085;-62
2023/08/10 02:53:30;;;;;;;2.50;1.45;;;;;;;;;;5044614;28;20061;-68
2023/08/10 02:55:56;;;;;;;2.70;1.75;;;;;;;;;;5044342;28;20619;-67
2023/08/10 02:58:23;;;;;;;3.58;1.40;;;;;;;;;;5046526;28;20570;-65
2023/08/10 03:00:49;;;;;;;3.40;1.60;;;;;;;;;;5064410;28;20053;-68
2023/08/10 03:03:17;;;;;;;4.97;1.35;;;;;;;;;;5063716;28;20053;-67
2023/08/10 03:05:43;;;;;;;7.18;1.95;;;;;;;;;;5045428;28;20119;-67
2023/08/10 03:08:10;;;;;;;6.43;1.48;;;;;;;;;;5063258;28;20481;-66
2023/08/10 03:10:36;;;;;;;2.90;1.65;;;;;;;;;;5064168;28;20096;-63
2023/08/10 03:13:04;;;;;;;5.57;1.30;;;;;;;;;;5064224;28;20053;-62
2023/08/10 03:15:30;;;;;;;2.92;1.52;;;;;;;;;;5064502;28;20547;-68
2023/08/10 03:17:57;;;;;;;4.43;1.63;;;;;;;;;;5060594;28;20135;-66
2023/08/10 03:20:24;;;;;;;2.60;1.35;;;;;;;;;;5042198;28;20057;-64
2023/08/10 03:22:50;;;;;;;5.35;1.70;;;;;;;;;;5042649;28;20508;-67
2023/08/10 03:25:17;;;;;;;4.38;1.50;;;;;;;;;;5044252;28;20065;-68
2023/08/10 03:27:43;;;;;;;5.07;1.90;;;;;;;;;;5044188;28;20081;-68
2023/08/10 03:30:10;;;;;;;5.60;1.40;;;;;;;;;;5050695;28;20046;-62
2023/08/10 03:32:37;;;;;;;2.80;1.38;;;;;;;;;;5049515;28;20056;-67
2023/08/10 03:35:05;;;;;;;3.60;1.30;;;;;;;;;;5044116;28;20531;-66
2023/08/10 03:37:31;;;;;;;4.65;1.60;;;;;;;;;;5044755;28;20046;-68
2023/08/10 03:39:58;;;;;;;1.77;1.30;;;;;;;;;;5044307;28;20053;-66
2023/08/10 03:42:25;;;;;;;2.13;1.40;;;;;;;;;;5043670;28;20591;-67
2023/08/10 03:44:54;;;;;;;4.38;1.60;;;;;;;;;;5042679;28;20131;-67
2023/08/10 03:47:22;;;;;;;3.63;1.70;;;;;;;;;;5046850;28;20076;-67
2023/08/10 03:49:49;;;;;;;2.40;1.60;;;;;;;;;;5051970;28;20055;-66
2023/08/10 03:52:15;;;;;;;2.55;1.60;;;;;;;;;;5043294;28;20053;-65
2023/08/10 03:54:42;;;;;;;3.70;1.88;;;;;;;;;;5043805;28;20057;-68
2023/08/10 03:57:09;;;;;;;1.90;1.35;;;;;;;;;;5043525;28;20054;-67
2023/08/10 03:59:35;;;;;;;2.92;1.35;;;;;;;;;;5049435;28;20052;-63
2023/08/10 04:02:02;;;;;;;7.47;2.15;;;;;;;;;;5058113;28;20420;-66
2023/08/10 04:04:29;;;;;;;6.07;1.60;;;;;;;;;;5043163;28;20053;-66
2023/08/10 04:06:55;;;;;;;3.55;1.48;;;;;;;;;;5043164;28;20170;-67
2023/08/10 04:09:22;;;;;;;2.85;1.92;;;;;;;;;;5042902;28;20258;-64
2023/08/10 04:11:48;;;;;;;8.90;2.33;;;;;;;;;;5043272;28;20058;-67
2023/08/10 04:14:15;;;;;;;2.55;1.60;;;;;;;;;;5042612;28;20053;-67
2023/08/10 04:16:41;;;;;;;3.25;2.38;;;;;;;;;;5048536;28;20049;-65
2023/08/10 04:19:08;;;;;;;5.53;2.00;;;;;;;;;;5063087;28;20052;-67
2023/08/10 04:21:35;;;;;;;2.78;1.63;;;;;;;;;;5062558;28;20538;-66
2023/08/10 04:24:01;;;;;;;6.68;1.45;;;;;;;;;;5063621;28;20088;-66
2023/08/10 04:26:28;;;;;;;3.45;1.52;;;;;;;;;;5061119;28;20055;-63
2023/08/10 04:28:54;;;;;;;4.13;1.60;;;;;;;;;;5054228;28;20609;-67
2023/08/10 04:31:21;;;;;;;2.38;1.50;;;;;;;;;;5043106;28;20168;-61
2023/08/10 04:33:47;;;;;;;5.15;1.92;;;;;;;;;;5042246;28;20053;-62
2023/08/10 04:36:14;;;;;;;7.07;3.10;;;;;;;;;;5052370;28;20126;-67
2023/08/10 04:38:40;;;;;;;4.03;1.73;;;;;;;;;;5056984;28;20131;-67
2023/08/10 04:41:07;;;;;;;7.88;2.30;;;;;;;;;;5058580;28;20063;-67
2023/08/10 04:43:34;;;;;;;5.50;2.13;;;;;;;;;;5042693;28;20587;-64
2023/08/10 04:46:00;;;;;;;2.55;1.80;;;;;;;;;;5062248;28;20466;-68
2023/08/10 04:48:27;;;;;;;5.60;2.15;;;;;;;;;;5062170;28;20119;-68
2023/08/10 04:50:53;;;;;;;3.47;2.25;;;;;;;;;;5062400;28;20057;-66
2023/08/10 04:53:20;;;;;;;4.10;2.50;;;;;;;;;;5061846;28;20060;-63
2023/08/10 04:55:46;;;;;;;7.53;2.45;;;;;;;;;;5063213;28;20396;-66
2023/08/10 04:58:12;;;;;;;4.20;2.45;;;;;;;;;;5060253;28;20057;-67
2023/08/10 05:00:39;;;;;;;6.28;2.60;;;;;;;;;;5059208;28;20057;-65
2023/08/10 05:03:05;;;;;;;12.23;3.53;;;;;;;;;;5044176;28;20132;-66
2023/08/10 05:05:32;;;;;;;6.60;3.13;;;;;;;;;;5042634;28;20053;-66
2023/08/10 05:07:59;;;;;;;4.93;2.60;;;;;;;;;;5042289;28;20518;-66
2023/08/10 05:10:25;;;;;;;6.50;2.65;;;;;;;;;;5049165;28;20143;-67
2023/08/10 05:12:52;;;;;;;3.83;2.50;;;;;;;;;;5042280;28;20554;-65
2023/08/10 05:15:19;;;;;;;4.70;2.58;;;;;;;;;;5057687;28;22026;-66
2023/08/10 05:17:45;;;;;;;6.97;2.60;;;;;;;;;;5047542;28;20652;-65
2023/08/10 05:20:12;;;;;;;5.97;2.30;;;;;;;;;;5074015;28;20148;-66
2023/08/10 05:22:40;;;;;;;14.43;2.60;;;;;;;;;;5052643;28;20057;-67
2023/08/10 05:25:08;;;;;;;6.75;2.20;;;;;;;;;;5061525;28;20491;-68
2023/08/10 05:27:38;;;;;;;4.78;2.30;;;;;;;;;;5061268;28;20634;-62
2023/08/10 05:30:08;;;;;;;10.18;2.58;;;;;;;;;;5049098;28;20116;-63
2023/08/10 05:32:36;;;;;;;3.45;2.22;;;;;;;;;;5041761;28;20056;-68
2023/08/10 05:35:03;;;;;;;6.07;2.40;;;;;;;;;;5044217;28;20476;-66
2023/08/10 05:37:30;;;;;;;5.80;2.50;;;;;;;;;;5041932;28;20132;-68
2023/08/10 05:39:56;;;;;;;4.05;2.58;;;;;;;;;;5059181;28;20318;-67
2023/08/10 05:42:23;;;;;;;3.20;2.10;;;;;;;;;;5058338;28;20045;-67
2023/08/10 05:44:49;;;;;;;4.80;2.33;;;;;;;;;;5043032;28;20057;-64
2023/08/10 05:47:16;;;;;;;4.93;2.50;;;;;;;;;;5047517;28;20067;-66
2023/08/10 05:49:42;;;;;;;7.38;2.25;;;;;;;;;;5045776;28;20088;-68
2023/08/10 05:52:09;;;;;;;6.80;3.10;;;;;;;;;;5045368;28;20531;-66
2023/08/10 05:54:35;;;;;;;8.35;2.55;;;;;;;;;;5044954;28;20136;-67
2023/08/10 05:57:02;;;;;;;8.27;2.78;;;;;;;;;;5045323;28;20590;-68
2023/08/10 05:59:28;;;;;;;4.88;2.38;;;;;;;;;;5055631;28;20053;-67
2023/08/10 06:01:55;;;;;;;6.65;2.80;;;;;;;;;;5063400;28;20084;-63
2023/08/10 06:04:21;;;;;;;4.22;2.60;;;;;;;;;;5061211;28;20056;-69
2023/08/10 06:06:48;;;;;;;6.30;2.30;;;;;;;;;;5059804;28;20652;-71
2023/08/10 06:09:16;;;;;;;2.17;1.98;;;;;;;;;;5065385;28;22204;-63
2023/08/10 06:11:42;;;;;;;3.50;1.92;;;;;;;;;;5072474;28;20059;-66
2023/08/10 06:14:14;;;;;;;6.95;2.58;;;;;;;;;;5066759;28;20056;-68
2023/08/10 06:16:41;;;;;;;4.80;2.08;;;;;;;;;;5061711;28;20140;-66
2023/08/10 06:19:08;;;;;;;5.40;2.10;;;;;;;;;;5060953;28;20112;-69
2023/08/10 06:21:34;;;;;;;5.45;1.80;;;;;;;;;;5062986;28;20059;-64
2023/08/10 06:24:01;;;;;;;4.22;2.13;;;;;;;;;;5067587;28;20076;-69
2023/08/10 06:26:27;;;;;;;5.70;2.05;;;;;;;;;;5072983;28;20093;-71
2023/08/10 06:28:54;;;;;;;3.13;2.00;;;;;;;;;;5058065;28;20080;-69
2023/08/10 06:31:20;;;;;;;3.65;2.08;;;;;;;;;;5061778;28;20048;-68
2023/08/10 06:33:47;;;;;;;5.85;1.52;;;;;;;;;;5073808;28;20431;-70
2023/08/10 06:36:14;;;;;;;4.07;2.03;;;;;;;;;;5071890;28;20061;-68
2023/08/10 06:38:40;;;;;;;8.85;2.33;;;;;;;;;;5068984;28;20158;-66
2023/08/10 06:41:07;;;;;;;5.97;2.05;;;;;;;;;;5060337;28;20076;-64
2023/08/10 06:43:33;;;;;;;2.95;2.22;;;;;;;;;;5063627;28;20060;-66
2023/08/10 06:46:00;;;;;;;3.40;2.55;;;;;;;;;;5063562;28;20080;-66
2023/08/10 06:48:26;;;;;;;4.90;2.55;;;;;;;;;;5064395;28;20053;-63
2023/08/10 06:50:53;;;;;;;2.88;2.10;;;;;;;;;;5062342;28;20108;-67
2023/08/10 06:53:19;;;;;;;4.15;2.25;;;;;;;;;;5060222;28;20587;-68
2023/08/10 06:55:47;;;;;;;6.78;2.00;;;;;;;;;;5050579;28;20546;-65
2023/08/10 06:58:14;;;;;;;3.53;2.22;;;;;;;;;;5061955;28;20053;-67
2023/08/10 07:01:00;;;;;;;5.80;2.38;;;;;;;;;;5073074;28;20055;-68
2023/08/10 07:03:27;;;;;;;3.00;2.08;;;;;;;;;;5066176;28;20048;-69
2023/08/10 07:05:55;;;;;;;4.40;1.98;;;;;;;;;;5055384;28;20412;-68
2023/08/10 07:08:22;;;;;;;5.13;2.00;;;;;;;;;;5062149;28;20060;-68
2023/08/10 07:10:48;;;;;;;3.53;1.65;;;;;;;;;;5048986;28;20056;-62
2023/08/10 07:13:15;;;;;;;5.07;2.75;;;;;;;;;;5057856;28;20563;-67
2023/08/10 07:15:42;;;;;;;3.70;2.00;;;;;;;;;;5049198;28;20072;-65
2023/08/10 07:18:09;;;;;;;4.20;2.38;;;;;;;;;;5061942;28;20077;-67
2023/08/10 07:20:35;;;;;;;4.82;2.00;;;;;;;;;;5053003;28;20056;-66
2023/08/10 07:23:03;;;;;;;3.03;1.70;;;;;;;;;;5069082;28;20528;-65
2023/08/10 07:25:31;;;;;;;3.45;1.83;;;;;;;;;;5061244;28;20048;-65
2023/08/10 07:27:57;;;;;;;3.38;1.85;;;;;;;;;;5061513;28;20063;-67
2023/08/10 07:30:24;;;;;;;2.50;1.75;;;;;;;;;;5056339;28;20722;-65
2023/08/10 07:32:50;;;;;;;3.22;2.10;;;;;;;;;;5061674;28;20560;-66
2023/08/10 07:35:18;;;;;;;6.72;1.73;;;;;;;;;;5063504;28;20514;-67
2023/08/10 07:37:46;;;;;;;2.63;1.30;;;;;;;;;;5061145;28;20478;-68
2023/08/10 07:40:12;;;;;;;3.42;1.90;;;;;;;;;;5053338;28;20424;-68
2023/08/10 07:42:39;;;;;;;2.88;1.45;;;;;;;;;;5061180;28;20130;-69
2023/08/10 07:45:09;;;;;;;3.75;1.73;;;;;;;;;;5063091;28;20057;-65
2023/08/10 07:47:36;;;;;;;2.97;1.60;;;;;;;;;;5062798;28;20136;-68
2023/08/10 07:50:03;;;;;;;2.63;1.60;;;;;;;;;;5056920;28;20056;-60
2023/08/10 07:52:30;;;;;;;4.18;1.38;;;;;;;;;;5062400;28;20119;-68
2023/08/10 07:54:56;;;;;;;3.45;1.80;;;;;;;;;;5062848;28;20136;-69
2023/08/10 07:57:22;;;;;;;1.55;1.45;;;;;;;;;;5063195;28;20059;-67
2023/08/10 07:59:49;;;;;;;3.10;1.40;;;;;;;;;;5056042;28;20053;-69
2023/08/10 08:02:15;;;;;;;3.60;1.98;;;;;;;;;;5061530;28;20057;-63
2023/08/10 08:04:41;;;;;;;6.65;2.17;;;;;;;;;;5056818;28;20144;-65
2023/08/10 08:07:08;;;;;;;2.78;1.42;;;;;;;;;;5061256;28;20060;-69
2023/08/10 08:09:34;;;;;;;6.85;1.60;;;;;;;;;;5062074;28;20140;-69
2023/08/10 08:12:01;;;;;;;3.42;1.17;;;;;;;;;;5068138;28;20660;-67
2023/08/10 08:14:28;;;;;;;5.82;1.75;;;;;;;;;;5081456;28;20052;-65
2023/08/10 08:16:54;;;;;;;3.03;1.50;;;;;;;;;;5067147;28;20092;-64
2023/08/10 08:19:20;;;;;;;4.35;1.50;;;;;;;;;;5049847;28;20342;-67
2023/08/10 08:21:48;;;;;;;3.40;1.65;;;;;;;;;;5050602;28;20108;-69
2023/08/10 08:24:15;;;;;;;2.95;1.55;;;;;;;;;;5048382;28;20512;-64
2023/08/10 08:26:41;;;;;;;1.90;1.10;;;;;;;;;;5052660;28;20084;-71
2023/08/10 08:29:08;;;;;;;3.58;1.33;;;;;;;;;;5063221;28;20053;-70
2023/08/10 08:31:35;;;;;;;4.25;1.40;;;;;;;;;;5062370;28;20510;-64
2023/08/10 08:34:03;;;;;;;4.38;1.75;;;;;;;;;;5062961;28;20099;-64
2023/08/10 08:36:29;;;;;;;6.45;1.88;;;;;;;;;;5065828;28;20053;-70
2023/08/10 08:38:56;;;;;;;3.40;1.40;;;;;;;;;;5068664;28;20111;-65
2023/08/10 08:41:25;;;;;;;6.65;1.48;;;;;;;;;;5062293;28;20045;-71
2023/08/10 08:43:52;;;;;;;2.05;1.40;;;;;;;;;;5062156;28;20143;-64
2023/08/10 08:46:22;;;;;;;4.88;1.35;;;;;;;;;;5062543;28;20123;-64
2023/08/10 08:48:49;;;;;;;5.18;1.75;;;;;;;;;;5050334;28;20144;-66
2023/08/10 08:51:16;;;;;;;5.10;1.50;;;;;;;;;;5053162;28;20052;-69
2023/08/10 08:53:43;;;;;;;6.10;2.15;;;;;;;;;;5059947;28;20436;-69
2023/08/10 08:56:09;;;;;;;1.98;1.20;;;;;;;;;;5060765;28;20053;-70
2023/08/10 08:58:36;;;;;;;1.98;1.27;;;;;;;;;;5062401;28;20053;-67
2023/08/10 09:01:03;;;;;;;2.53;1.50;;;;;;;;;;5067409;28;20060;-64
2023/08/10 09:03:29;;;;;;;2.40;1.23;;;;;;;;;;5054473;28;20108;-71
2023/08/10 09:05:56;;;;;;;3.38;1.55;;;;;;;;;;5059960;28;20467;-69
2023/08/10 09:08:23;;;;;;;3.45;1.55;;;;;;;;;;5057034;28;20063;-67
2023/08/10 09:10:49;;;;;;;3.50;1.42;;;;;;;;;;5041978;28;20049;-65
2023/08/10 09:13:18;;;;;;;2.70;1.40;;;;;;;;;;5042425;28;20405;-69
2023/08/10 09:15:45;;;;;;;2.70;1.42;;;;;;;;;;5056998;28;20052;-68
2023/08/10 09:18:11;;;;;;;3.17;1.63;;;;;;;;;;5071626;28;20056;-68
2023/08/10 09:20:38;;;;;;;3.55;1.70;;;;;;;;;;5062177;28;20053;-71
2023/08/10 09:23:07;;;;;;;3.35;1.83;;;;;;;;;;5083680;28;20515;-68
2023/08/10 09:25:38;;;;;;;3.15;1.70;;;;;;;;;;5065863;28;21092;-66
2023/08/10 09:28:10;;;;;;;2.13;1.40;;;;;;;;;;5064016;28;20158;-70
2023/08/10 09:30:36;;;;;;;3.05;1.40;;;;;;;;;;5054604;28;20060;-68
2023/08/10 09:33:03;;;;;;;4.47;1.48;;;;;;;;;;5081072;28;20453;-63
2023/08/10 09:35:30;;;;;;;5.32;2.58;;;;;;;;;;5063056;28;20053;-66
2023/08/10 09:38:01;;;;;;;5.47;1.90;;;;;;;;;;5061594;28;20706;-66
2023/08/10 09:40:29;;;;;;;3.47;1.60;;;;;;;;;;5063614;28;20172;-69
2023/08/10 09:42:55;;;;;;;3.67;1.58;;;;;;;;;;5062819;28;20052;-68
2023/08/10 09:45:22;;;;;;;3.95;1.73;;;;;;;;;;5061946;28;20063;-65
2023/08/10 09:47:48;;;;;;;2.67;1.60;;;;;;;;;;5061642;28;20057;-70
2023/08/10 09:50:16;;;;;;;5.15;1.58;;;;;;;;;;5071989;28;20059;-63
2023/08/10 09:52:43;;;;;;;8.38;1.77;;;;;;;;;;5061945;28;20629;-71
2023/08/10 09:55:10;;;;;;;3.10;2.20;;;;;;;;;;5060533;28;20540;-70
2023/08/10 09:57:44;;;;;;;1.77;1.65;;;;;;;;;;5064189;28;20144;-69
2023/08/10 10:00:22;;;;;;;3.88;1.80;;;;;;;;;;5065477;28;20048;-68
2023/08/10 10:02:48;;;;;;;4.60;1.67;;;;;;;;;;5060658;28;20053;-65
2023/08/10 10:05:17;;;;;;;3.88;1.75;;;;;;;;;;5063622;28;20059;-64
2023/08/10 10:08:06;;;;;;;3.78;2.47;;;;;;;;;;5078282;28;20178;-66
2023/08/10 10:10:32;;;;;;;5.88;2.20;;;;;;;;;;5064570;28;20474;-65
2023/08/10 10:12:59;;;;;;;3.35;2.00;;;;;;;;;;5057030;28;20100;-63
2023/08/10 10:15:26;;;;;;;2.47;2.03;;;;;;;;;;5055070;28;20976;-70
2023/08/10 10:17:52;;;;;;;3.85;2.05;;;;;;;;;;5049729;28;20588;-69
2023/08/10 10:20:20;;;;;;;4.03;2.30;;;;;;;;;;5061225;28;20443;-68
2023/08/10 10:22:46;;;;;;;3.72;2.05;;;;;;;;;;5061562;28;20064;-64
2023/08/10 10:25:16;;;;;;;6.25;2.15;;;;;;;;;;5063413;28;20507;-67
2023/08/10 10:27:46;;;;;;;3.47;2.40;;;;;;;;;;5055023;28;20049;-69
2023/08/10 10:30:15;;;;;;;3.05;2.25;;;;;;;;;;5064213;28;20486;-65
2023/08/10 10:32:43;;;;;;;3.75;1.98;;;;;;;;;;5062164;28;20049;-64
2023/08/10 10:35:10;;;;;;;4.32;2.40;;;;;;;;;;5060722;28;20060;-66
2023/08/10 10:37:37;;;;;;;5.18;2.30;;;;;;;;;;5054288;28;20053;-65
2023/08/10 10:40:14;;;;;;;3.40;1.83;;;;;;;;;;5063107;28;20049;-64
2023/08/10 10:42:59;;;;;;;3.03;2.15;;;;;;;;;;5063782;28;20140;-65
2023/08/10 10:45:25;;;;;;;3.63;2.42;;;;;;;;;;5063284;28;20057;-65
2023/08/10 10:47:52;;;;;;;6.20;2.30;;;;;;;;;;5062786;28;20053;-64
2023/08/10 10:50:27;;;;;;;4.40;2.67;;;;;;;;;;5062276;28;20586;-70
2023/08/10 10:52:55;;;;;;;2.50;1.83;;;;;;;;;;5049960;28;20052;-63
2023/08/10 10:55:27;;;;;;;5.65;2.22;;;;;;;;;;5062889;28;20650;-66
2023/08/10 10:57:53;;;;;;;4.35;2.33;;;;;;;;;;5068683;28;20540;-64
2023/08/10 11:00:22;;;;;;;4.50;2.08;;;;;;;;;;5067335;28;20065;-68
2023/08/10 11:02:48;;;;;;;2.05;1.58;;;;;;;;;;5061532;28;20057;-67
2023/08/10 11:05:18;;;;;;;3.72;1.92;;;;;;;;;;5058560;28;20311;-64
2023/08/10 11:07:46;;;;;;;3.28;1.92;;;;;;;;;;5055695;28;20108;-67
2023/08/10 11:10:13;;;;;;;2.67;2.17;;;;;;;;;;5060883;28;20057;-66
2023/08/10 11:12:40;;;;;;;2.08;1.58;;;;;;;;;;5073228;28;20049;-66
2023/08/10 11:15:09;;;;;;;5.18;1.90;;;;;;;;;;5059607;28;20482;-66
2023/08/10 11:17:36;;;;;;;3.70;1.70;;;;;;;;;;5049405;28;20650;-68
2023/08/10 11:20:15;;;;;;;5.28;2.40;;;;;;;;;;5067544;28;20125;-63
2023/08/10 11:22:42;;;;;;;2.10;1.88;;;;;;;;;;5068143;28;20647;-67
2023/08/10 11:25:13;;;;;;;4.15;2.10;;;;;;;;;;5052829;28;20083;-67
2023/08/10 11:27:41;;;;;;;3.75;2.25;;;;;;;;;;5054966;28;20049;-69
2023/08/10 11:30:09;;;;;;;1.88;1.75;;;;;;;;;;5063126;28;20080;-67
2023/08/10 11:32:40;;;;;;;2.83;2.00;;;;;;;;;;5062337;28;20058;-66
2023/08/10 11:35:08;;;;;;;2.33;1.90;;;;;;;;;;5053731;28;20053;-63
2023/08/10 11:37:38;;;;;;;4.70;2.13;;;;;;;;;;5050265;28;20136;-67
2023/08/10 11:40:11;;;;;;;4.05;2.15;;;;;;;;;;5053710;28;20617;-68
2023/08/10 11:42:41;;;;;;;2.85;1.90;;;;;;;;;;5054225;28;20057;-66
2023/08/10 11:45:11;;;;;;;3.10;1.90;;;;;;;;;;5056193;28;20340;-64
2023/08/10 11:47:42;;;;;;;4.57;1.80;;;;;;;;;;5061945;28;20055;-63
2023/08/10 11:50:13;;;;;;;3.45;2.30;;;;;;;;;;5056607;28;20504;-67
2023/08/10 11:52:40;;;;;;;3.70;2.03;;;;;;;;;;5060131;28;20499;-65
2023/08/10 11:55:16;;;;;;;3.03;1.85;;;;;;;;;;5062052;28;20053;-65
2023/08/10 11:57:44;;;;;;;3.72;1.65;;;;;;;;;;5056252;28;20060;-67
2023/08/10 12:00:17;;;;;;;2.17;1.60;;;;;;;;;;5050767;28;20610;-67
2023/08/10 12:02:57;;;;;;;3.08;1.60;;;;;;;;;;5069505;28;20059;-66
2023/08/10 12:05:36;;;;;;;2.05;1.50;;;;;;;;;;5062405;28;20493;-66
2023/08/10 12:08:03;;;;;;;4.55;1.67;;;;;;;;;;5062679;28;20500;-63
2023/08/10 12:10:41;;;;;;;3.00;1.92;;;;;;;;;;5068424;28;20076;-68
2023/08/10 12:13:10;;;;;;;6.45;3.40;;;;;;;;;;5064709;28;20057;-70
2023/08/10 12:15:37;;;;;;;1.48;1.35;;;;;;;;;;5060573;28;20045;-65
2023/08/10 12:18:05;;;;;;;2.50;1.50;;;;;;;;;;5059507;28;20056;-65
2023/08/10 12:20:32;;;;;;;4.70;1.40;;;;;;;;;;5054889;28;20065;-68
2023/08/10 12:22:58;;;;;;;2.25;1.50;;;;;;;;;;5053918;28;20155;-63
2023/08/10 12:25:25;;;;;;;3.53;1.33;;;;;;;;;;5060791;28;20439;-68
2023/08/10 12:27:51;;;;;;;2.75;1.40;;;;;;;;;;5053837;28;20152;-63
2023/08/10 12:30:18;;;;;;;5.03;1.92;;;;;;;;;;5057849;28;20136;-64
2023/08/10 12:32:44;;;;;;;6.38;1.65;;;;;;;;;;5049932;28;20365;-64
2023/08/10 12:35:11;;;;;;;5.78;1.50;;;;;;;;;;5058042;28;21661;-66
2023/08/10 12:37:38;;;;;;;1.40;1.20;;;;;;;;;;5060571;28;21626;-66
2023/08/10 12:40:05;;;;;;;1.60;1.30;;;;;;;;;;5058776;28;20471;-65
2023/08/10 12:42:31;;;;;;;1.45;1.30;;;;;;;;;;5057340;28;20160;-65
2023/08/10 12:44:58;;;;;;;1.63;1.25;;;;;;;;;;5070569;28;20529;-70
2023/08/10 12:47:24;;;;;;;2.00;1.35;;;;;;;;;;5065578;28;20080;-65
2023/08/10 12:49:51;;;;;;;2.33;1.50;;;;;;;;;;5059831;28;20179;-70
2023/08/10 12:52:18;;;;;;;1.48;1.30;;;;;;;;;;5064559;28;20052;-70
2023/08/10 12:54:44;;;;;;;3.58;1.38;;;;;;;;;;5051903;28;20063;-69
2023/08/10 12:57:11;;;;;;;3.35;1.67;;;;;;;;;;5058872;28;20060;-63
2023/08/10 12:59:37;;;;;;;1.98;1.23;;;;;;;;;;5058410;28;20057;-64
2023/08/10 13:02:04;;;;;;;2.30;1.30;;;;;;;;;;5047882;28;20049;-67
2023/08/10 13:04:31;;;;;;;2.17;1.27;;;;;;;;;;5061393;28;20069;-68
2023/08/10 13:06:57;;;;;;;2.70;1.50;;;;;;;;;;5059232;28;20049;-65
2023/08/10 13:09:24;;;;;;;2.92;1.55;;;;;;;;;;5058923;28;20060;-67
2023/08/10 13:11:50;;;;;;;2.05;1.30;;;;;;;;;;5058730;28;20057;-68
2023/08/10 13:14:17;;;;;;;2.30;1.60;;;;;;;;;;5060183;28;20099;-65
2023/08/10 13:16:43;;;;;;;2.85;1.20;;;;;;;;;;5052843;28;20053;-66
2023/08/10 13:19:10;;;;;;;2.13;1.25;;;;;;;;;;5050542;28;20333;-68
2023/08/10 13:21:37;;;;;;;2.60;1.40;;;;;;;;;;5057259;28;20053;-68
2023/08/10 13:24:04;;;;;;;4.07;1.20;;;;;;;;;;5058674;28;20597;-67
2023/08/10 13:26:30;;;;;;;1.75;1.08;;;;;;;;;;5059403;28;20554;-62
2023/08/10 13:28:57;;;;;;;3.83;1.75;;;;;;;;;;5061284;28;20092;-67
2023/08/10 13:31:23;;;;;;;2.53;1.42;;;;;;;;;;5059063;28;20056;-67
2023/08/10 13:33:50;;;;;;;3.13;1.30;;;;;;;;;;5056261;28;20053;-63
2023/08/10 13:36:16;;;;;;;1.73;1.30;;;;;;;;;;5053415;28;20053;-60
2023/08/10 13:38:43;;;;;;;1.50;1.25;;;;;;;;;;5059152;28;20052;-68
2023/08/10 13:41:09;;;;;;;2.25;1.30;;;;;;;;;;5048473;28;20056;-64
2023/08/10 13:43:35;;;;;;;2.47;1.25;;;;;;;;;;5048923;28;20084;-63
2023/08/10 13:46:02;;;;;;;4.57;1.38;;;;;;;;;;5060850;28;20064;-67
2023/08/10 13:48:29;;;;;;;2.30;1.60;;;;;;;;;;5059306;28;20204;-67
2023/08/10 13:50:56;;;;;;;2.28;1.38;;;;;;;;;;5059168;28;20187;-64
2023/08/10 13:53:23;;;;;;;1.88;1.60;;;;;;;;;;5061455;28;20063;-64
2023/08/10 13:55:50;;;;;;;2.10;1.90;;;;;;;;;;5058035;28;20197;-63
2023/08/10 13:58:16;;;;;;;2.25;1.30;;;;;;;;;;5053633;28;20048;-63
2023/08/10 14:00:43;;;;;;;1.42;1.33;;;;;;;;;;5056592;28;20146;-66
2023/08/10 14:03:11;;;;;;;2.92;1.50;;;;;;;;;;5044578;28;20136;-63
2023/08/10 14:05:38;;;;;;;1.20;1.10;;;;;;;;;;5043480;28;20498;-63
2023/08/10 14:08:05;;;;;;;2.08;1.40;;;;;;;;;;5055530;28;20416;-63
2023/08/10 14:10:31;;;;;;;1.67;1.30;;;;;;;;;;5052777;28;20055;-63
2023/08/10 14:12:58;;;;;;;1.75;1.63;;;;;;;;;;5061514;28;20049;-68
2023/08/10 14:15:24;;;;;;;1.70;1.60;;;;;;;;;;5062008;28;20057;-69
2023/08/10 14:17:53;;;;;;;2.47;1.63;;;;;;;;;;5056571;28;20068;-69
2023/08/10 14:20:19;;;;;;;4.15;1.50;;;;;;;;;;5050238;28;20055;-69
2023/08/10 14:22:46;;;;;;;2.47;1.63;;;;;;;;;;5056564;28;20057;-65
2023/08/10 14:25:12;;;;;;;2.67;1.67;;;;;;;;;;5061241;28;20068;-69
2023/08/10 14:27:40;;;;;;;3.75;1.95;;;;;;;;;;5061272;28;20546;-68
2023/08/10 14:30:07;;;;;;;2.28;1.80;;;;;;;;;;5063993;28;20300;-66
2023/08/10 14:32:33;;;;;;;2.55;1.50;;;;;;;;;;5051699;28;20090;-68
2023/08/10 14:35:00;;;;;;;1.55;1.38;;;;;;;;;;5044057;28;20525;-67
2023/08/10 14:37:26;;;;;;;3.38;2.17;;;;;;;;;;5055692;28;20657;-65
2023/08/10 14:39:52;;;;;;;3.60;1.60;;;;;;;;;;5059094;28;20057;-68
2023/08/10 14:42:19;;;;;;;1.92;1.60;;;;;;;;;;5055082;28;20642;-64
2023/08/10 14:44:45;;;;;;;5.18;2.00;;;;;;;;;;5060286;28;20503;-67